createdAt,value
2023-03-10T18:15:21.471Z,72.50
2023-03-10T18:17:48.015Z,72.00
2023-03-10T18:20:14.841Z,71.50
2023-03-10T18:22:41.403Z,70.70
2023-03-10T18:25:08.151Z,69.40
2023-03-10T18:27:39.375Z,70.00
2023-03-10T18:30:08.559Z,69.50
2023-03-10T18:32:35.174Z,70.30
2023-03-10T18:35:02.834Z,70.80
2023-03-10T18:37:32.248Z,70.30
2023-03-10T18:40:04.042Z,71.10
2023-03-10T18:42:30.613Z,71.60
2023-03-10T18:44:57.196Z,70.40
2023-03-10T18:47:23.763Z,70.20
2023-03-10T18:49:50.299Z,70.40
2023-03-10T18:52:16.891Z,70.40
2023-03-10T18:54:43.703Z,70.20
2023-03-10T18:57:10.779Z,70.90
2023-03-10T18:59:39.885Z,70.80
2023-03-10T19:02:15.799Z,70.00
2023-03-10T19:04:47.476Z,71.10
2023-03-10T19:07:22.464Z,69.90
2023-03-10T19:09:52.885Z,69.10
2023-03-10T19:12:19.461Z,68.60
2023-03-10T19:14:45.974Z,69.70
2023-03-10T19:17:12.616Z,70.20
2023-03-10T19:19:39.180Z,68.90
2023-03-10T19:22:05.749Z,69.10
2023-03-10T19:24:32.324Z,69.50
2023-03-10T19:26:58.843Z,68.60
2023-03-10T19:29:25.378Z,69.30
2023-03-10T19:31:51.920Z,68.40
2023-03-10T19:34:18.567Z,68.20
2023-03-10T19:36:45.512Z,68.20
2023-03-10T19:39:13.684Z,68.60
2023-03-10T19:41:40.363Z,68.60
2023-03-10T19:44:06.931Z,69.20
2023-03-10T19:46:33.519Z,69.30
2023-03-10T19:49:00.115Z,68.70
2023-03-10T19:51:27.634Z,69.50
2023-03-10T19:53:55.348Z,68.20
2023-03-10T19:56:22.908Z,68.90
2023-03-10T19:58:49.962Z,69.50
2023-03-10T20:01:18.084Z,69.70
2023-03-10T20:03:44.825Z,69.50
2023-03-10T20:06:11.452Z,70.10
2023-03-10T20:08:42.659Z,69.20
2023-03-10T20:11:13.408Z,69.50
2023-03-10T20:13:40.945Z,69.50
2023-03-10T20:16:07.803Z,69.30
2023-03-10T20:18:38.677Z,69.30
2023-03-10T20:21:06.230Z,69.40
2023-03-10T20:23:35.196Z,69.50
2023-03-10T20:26:02.791Z,69.10
2023-03-10T20:28:29.807Z,69.50
2023-03-10T20:30:58.770Z,69.80
2023-03-10T20:33:25.804Z,69.10
2023-03-10T20:35:52.387Z,69.30
2023-03-10T20:38:21.449Z,69.90
2023-03-10T20:40:48.184Z,69.80
2023-03-10T20:43:14.830Z,69.80
2023-03-10T20:45:41.579Z,69.20
2023-03-10T20:48:08.585Z,69.60
2023-03-10T20:50:35.837Z,69.60
2023-03-10T20:53:03.092Z,69.70
2023-03-10T20:55:30.639Z,70.00
2023-03-10T20:57:58.580Z,69.50
2023-03-10T21:00:26.040Z,70.00
2023-03-10T21:02:53.232Z,70.00
2023-03-10T21:05:22.956Z,69.90
2023-03-10T21:07:50.047Z,69.80
2023-03-10T21:10:17.187Z,70.40
2023-03-10T21:12:43.824Z,69.90
2023-03-10T21:15:15.072Z,70.30
2023-03-10T21:17:41.989Z,70.00
2023-03-10T21:20:09.001Z,69.60
2023-03-10T21:22:36.353Z,70.00
2023-03-10T21:25:03.614Z,69.70
2023-03-10T21:27:30.890Z,69.60
2023-03-10T21:29:58.785Z,69.20
2023-03-10T21:32:26.934Z,69.30
2023-03-10T21:34:53.659Z,69.30
2023-03-10T21:37:20.613Z,69.20
2023-03-10T21:39:48.053Z,69.00
2023-03-10T21:42:15.177Z,69.30
2023-03-10T21:44:41.735Z,69.30
2023-03-10T21:47:08.313Z,68.90
2023-03-10T21:49:34.912Z,69.30
2023-03-10T21:52:01.564Z,68.50
2023-03-10T21:54:28.596Z,69.10
2023-03-10T21:56:55.185Z,68.80
2023-03-10T21:59:21.780Z,68.30
2023-03-10T22:01:48.432Z,69.10
2023-03-10T22:04:15.035Z,68.70
2023-03-10T22:06:41.656Z,68.40
2023-03-10T22:09:08.179Z,69.00
2023-03-10T22:11:36.055Z,69.20
2023-03-10T22:14:02.604Z,68.40
2023-03-10T22:16:29.242Z,68.30
2023-03-10T22:18:58.358Z,69.20
2023-03-10T22:21:24.889Z,69.40
2023-03-10T22:23:51.437Z,69.40
2023-03-10T22:26:18.004Z,69.30
2023-03-10T22:28:44.544Z,69.90
2023-03-10T22:31:11.172Z,70.10
2023-03-10T22:33:37.828Z,70.60
2023-03-10T22:36:05.421Z,70.90
2023-03-10T22:38:32.223Z,71.00
2023-03-10T22:40:58.951Z,71.50
2023-03-10T22:43:25.829Z,71.90
2023-03-10T22:45:53.008Z,72.10
2023-03-10T22:48:19.658Z,72.50
2023-03-10T22:50:46.709Z,72.80
2023-03-10T22:53:14.638Z,72.60
2023-03-10T22:55:43.466Z,72.80
2023-03-10T22:58:11.042Z,72.90
2023-03-10T23:00:38.513Z,73.00
2023-03-10T23:03:05.742Z,72.90
2023-03-10T23:05:32.355Z,72.80
2023-03-10T23:07:59.162Z,72.90
2023-03-10T23:10:27.201Z,73.00
2023-03-10T23:12:54.466Z,73.00
2023-03-10T23:15:26.002Z,73.40
2023-03-10T23:17:56.249Z,74.40
2023-03-10T23:20:26.971Z,74.20
2023-03-10T23:22:55.204Z,75.70
2023-03-10T23:25:23.853Z,75.70
2023-03-10T23:27:50.477Z,76.50
2023-03-10T23:30:17.300Z,77.10
2023-03-10T23:32:45.266Z,76.30
2023-03-10T23:35:12.981Z,77.30
2023-03-10T23:37:39.930Z,77.20
2023-03-10T23:40:11.553Z,77.30
2023-03-10T23:42:40.851Z,77.40
2023-03-10T23:45:08.552Z,77.40
2023-03-10T23:47:35.649Z,77.30
2023-03-10T23:50:03.696Z,77.10
2023-03-10T23:52:30.443Z,77.30
2023-03-10T23:54:57.030Z,77.20
2023-03-10T23:57:23.597Z,77.20
2023-03-10T23:59:50.257Z,77.20
